sensor_id;sensor_type;location;lat;lon;timestamp;pressure;altitude;pressure_sealevel;temperature;humidity
72157;BME280;60035;52.122;5.406;2023-10-13T00:01:48;101272.22;;;16.70;100.00
72157;BME280;60035;52.122;5.406;2023-10-13T00:04:18;101275.72;;;16.69;100.00
72157;BME280;60035;52.122;5.406;2023-10-13T00:06:50;101278.28;;;16.69;100.00
72157;BME280;60035;52.122;5.406;2023-10-13T00:09:16;101277.53;;;16.67;100.00
72157;BME280;60035;52.122;5.406;2023-10-13T00:11:43;101268.94;;;16.66;100.00
72157;BME280;60035;52.122;5.406;2023-10-13T00:14:13;101263.84;;;16.65;100.00
72157;BME280;60035;52.122;5.406;2023-10-13T00:16:43;101264.66;;;16.65;100.00
72157;BME280;60035;52.122;5.406;2023-10-13T00:22:14;101264.66;;;16.65;100.00
72157;BME280;60035;52.122;5.406;2023-10-13T00:24:43;101258.59;;;16.66;100.00
72157;BME280;60035;52.122;5.406;2023-10-13T00:27:14;101252.59;;;16.66;100.00
72157;BME280;60035;52.122;5.406;2023-10-13T00:30:02;101254.28;;;16.67;100.00
72157;BME280;60035;52.122;5.406;2023-10-13T00:32:45;101250.84;;;16.66;100.00
72157;BME280;60035;52.122;5.406;2023-10-13T00:35:13;101254.28;;;16.67;100.00
72157;BME280;60035;52.122;5.406;2023-10-13T00:37:56;101246.50;;;16.67;100.00
72157;BME280;60035;52.122;5.406;2023-10-13T00:40:24;101239.59;;;16.68;100.00
72157;BME280;60035;52.122;5.406;2023-10-13T00:43:01;101244.75;;;16.68;100.00
72157;BME280;60035;52.122;5.406;2023-10-13T00:48:33;101235.25;;;16.68;100.00
72157;BME280;60035;52.122;5.406;2023-10-13T00:51:04;101234.34;;;16.69;100.00
72157;BME280;60035;52.122;5.406;2023-10-13T00:53:34;101230.06;;;16.68;100.00
72157;BME280;60035;52.122;5.406;2023-10-13T00:56:03;101226.56;;;16.69;100.00
72157;BME280;60035;52.122;5.406;2023-10-13T00:58:34;101225.75;;;16.69;100.00
72157;BME280;60035;52.122;5.406;2023-10-13T01:01:01;101218.97;;;16.66;100.00
72157;BME280;60035;52.122;5.406;2023-10-13T01:03:50;101215.50;;;16.67;100.00
72157;BME280;60035;52.122;5.406;2023-10-13T01:06:22;101211.97;;;16.68;100.00
72157;BME280;60035;52.122;5.406;2023-10-13T01:09:02;101205.19;;;16.65;100.00
72157;BME280;60035;52.122;5.406;2023-10-13T01:11:39;101204.38;;;16.65;100.00
72157;BME280;60035;52.122;5.406;2023-10-13T01:14:05;101197.44;;;16.65;100.00
72157;BME280;60035;52.122;5.406;2023-10-13T01:16:32;101200.03;;;16.65;100.00
72157;BME280;60035;52.122;5.406;2023-10-13T01:18:59;101197.44;;;16.65;100.00
72157;BME280;60035;52.122;5.406;2023-10-13T01:21:32;101194.84;;;16.65;100.00
72157;BME280;60035;52.122;5.406;2023-10-13T01:24:00;101185.53;;;16.63;100.00
72157;BME280;60035;52.122;5.406;2023-10-13T01:26:27;101187.09;;;16.65;100.00
72157;BME280;60035;52.122;5.406;2023-10-13T01:28:57;101177.59;;;16.66;100.00
72157;BME280;60035;52.122;5.406;2023-10-13T01:31:24;101174.13;;;16.67;100.00
72157;BME280;60035;52.122;5.406;2023-10-13T01:33:54;101175.75;;;16.68;100.00
72157;BME280;60035;52.122;5.406;2023-10-13T01:36:21;101171.53;;;16.67;100.00
72157;BME280;60035;52.122;5.406;2023-10-13T01:38:49;101171.53;;;16.67;100.00
72157;BME280;60035;52.122;5.406;2023-10-13T01:41:16;101173.13;;;16.70;100.00
72157;BME280;60035;52.122;5.406;2023-10-13T01:43:43;101161.94;;;16.69;100.00
72157;BME280;60035;52.122;5.406;2023-10-13T01:46:10;101158.34;;;16.72;100.00
72157;BME280;60035;52.122;5.406;2023-10-13T01:48:40;101166.19;;;16.70;100.00
72157;BME280;60035;52.122;5.406;2023-10-13T01:51:06;101147.31;;;16.68;100.00
72157;BME280;60035;52.122;5.406;2023-10-13T01:53:37;101149.91;;;16.68;100.00
72157;BME280;60035;52.122;5.406;2023-10-13T01:56:07;101150.84;;;16.67;100.00
72157;BME280;60035;52.122;5.406;2023-10-13T01:58:40;101141.31;;;16.68;100.00
72157;BME280;60035;52.122;5.406;2023-10-13T02:01:14;101142.16;;;16.68;100.00
72157;BME280;60035;52.122;5.406;2023-10-13T02:03:55;101140.50;;;16.67;100.00
72157;BME280;60035;52.122;5.406;2023-10-13T02:06:32;101145.69;;;16.67;100.00
72157;BME280;60035;52.122;5.406;2023-10-13T02:09:00;101143.91;;;16.68;100.00
72157;BME280;60035;52.122;5.406;2023-10-13T02:11:38;101141.31;;;16.68;100.00
72157;BME280;60035;52.122;5.406;2023-10-13T02:14:05;101136.16;;;16.68;100.00
72157;BME280;60035;52.122;5.406;2023-10-13T02:16:31;101129.31;;;16.66;100.00
72157;BME280;60035;52.122;5.406;2023-10-13T02:18:58;101134.47;;;16.66;100.00
72157;BME280;60035;52.122;5.406;2023-10-13T02:21:34;101131.88;;;16.66;100.00
72157;BME280;60035;52.122;5.406;2023-10-13T02:24:08;101122.47;;;16.65;100.00
72157;BME280;60035;52.122;5.406;2023-10-13T02:26:40;101131.06;;;16.66;100.00
72157;BME280;60035;52.122;5.406;2023-10-13T02:29:07;101119.88;;;16.65;100.00
72157;BME280;60035;52.122;5.406;2023-10-13T02:31:39;101116.47;;;16.65;100.00
72157;BME280;60035;52.122;5.406;2023-10-13T02:34:06;101111.28;;;16.65;100.00
72157;BME280;60035;52.122;5.406;2023-10-13T02:36:39;101111.28;;;16.65;100.00
72157;BME280;60035;52.122;5.406;2023-10-13T02:39:15;101097.53;;;16.64;100.00
72157;BME280;60035;52.122;5.406;2023-10-13T02:41:43;101099.28;;;16.64;100.00
72157;BME280;60035;52.122;5.406;2023-10-13T02:44:14;101089.88;;;16.63;100.00
72157;BME280;60035;52.122;5.406;2023-10-13T02:46:54;101089.00;;;16.62;100.00
72157;BME280;60035;52.122;5.406;2023-10-13T02:49:25;101076.16;;;16.61;100.00
72157;BME280;60035;52.122;5.406;2023-10-13T02:51:53;101068.56;;;16.58;100.00
72157;BME280;60035;52.122;5.406;2023-10-13T02:54:26;101078.06;;;16.57;100.00
72157;BME280;60035;52.122;5.406;2023-10-13T02:57:05;101069.47;;;16.57;100.00
72157;BME280;60035;52.122;5.406;2023-10-13T02:59:32;101066.91;;;16.57;100.00
72157;BME280;60035;52.122;5.406;2023-10-13T03:02:16;101048.03;;;16.55;100.00
72157;BME280;60035;52.122;5.406;2023-10-13T03:04:48;101048.13;;;16.53;100.00
72157;BME280;60035;52.122;5.406;2023-10-13T03:07:15;101035.28;;;16.52;100.00
72157;BME280;60035;52.122;5.406;2023-10-13T03:09:51;101024.94;;;16.52;100.00
72157;BME280;60035;52.122;5.406;2023-10-13T03:12:19;101010.25;;;16.52;100.00
72157;BME280;60035;52.122;5.406;2023-10-13T03:14:46;101005.06;;;16.52;100.00
72157;BME280;60035;52.122;5.406;2023-10-13T03:17:15;100997.41;;;16.51;100.00
72157;BME280;60035;52.122;5.406;2023-10-13T03:19:44;100993.09;;;16.51;100.00
72157;BME280;60035;52.122;5.406;2023-10-13T03:22:18;101000.91;;;16.49;100.00
72157;BME280;60035;52.122;5.406;2023-10-13T03:24:45;100999.25;;;16.48;100.00
72157;BME280;60035;52.122;5.406;2023-10-13T03:27:17;100995.81;;;16.48;100.00
72157;BME280;60035;52.122;5.406;2023-10-13T03:29:45;101000.16;;;16.47;100.00
72157;BME280;60035;52.122;5.406;2023-10-13T03:32:20;100996.00;;;16.45;100.00
72157;BME280;60035;52.122;5.406;2023-10-13T03:34:47;100984.78;;;16.44;100.00
72157;BME280;60035;52.122;5.406;2023-10-13T03:37:21;100981.47;;;16.42;100.00
72157;BME280;60035;52.122;5.406;2023-10-13T03:40:11;100977.13;;;16.43;100.00
72157;BME280;60035;52.122;5.406;2023-10-13T03:42:47;100991.00;;;16.42;100.00
72157;BME280;60035;52.122;5.406;2023-10-13T03:45:42;100954.94;;;16.39;100.00
72157;BME280;60035;52.122;5.406;2023-10-13T03:48:14;100949.84;;;16.37;100.00
72157;BME280;60035;52.122;5.406;2023-10-13T03:50:54;100947.28;;;16.37;100.00
72157;BME280;60035;52.122;5.406;2023-10-13T03:53:31;100936.94;;;16.37;100.00
72157;BME280;60035;52.122;5.406;2023-10-13T03:56:04;100924.91;;;16.36;100.00
72157;BME280;60035;52.122;5.406;2023-10-13T03:58:58;100914.59;;;16.36;100.00
72157;BME280;60035;52.122;5.406;2023-10-13T04:01:30;100912.84;;;16.37;100.00
72157;BME280;60035;52.122;5.406;2023-10-13T04:04:16;100910.28;;;16.37;100.00
72157;BME280;60035;52.122;5.406;2023-10-13T04:06:57;100905.09;;;16.37;100.00
72157;BME280;60035;52.122;5.406;2023-10-13T04:09:37;100892.19;;;16.37;100.00
72157;BME280;60035;52.122;5.406;2023-10-13T04:12:13;100886.25;;;16.35;100.00
72157;BME280;60035;52.122;5.406;2023-10-13T04:14:44;100874.16;;;16.35;100.00
72157;BME280;60035;52.122;5.406;2023-10-13T04:17:29;100868.06;;;16.36;100.00
72157;BME280;60035;52.122;5.406;2023-10-13T04:20:00;100859.41;;;16.37;100.00
72157;BME280;60035;52.122;5.406;2023-10-13T04:22:36;100858.59;;;16.37;100.00
72157;BME280;60035;52.122;5.406;2023-10-13T04:25:27;100850.84;;;16.37;100.00
72157;BME280;60035;52.122;5.406;2023-10-13T04:28:12;100853.41;;;16.37;100.00
72157;BME280;60035;52.122;5.406;2023-10-13T04:30:43;100848.25;;;16.37;100.00
72157;BME280;60035;52.122;5.406;2023-10-13T04:33:29;100856.81;;;16.37;100.00
72157;BME280;60035;52.122;5.406;2023-10-13T04:36:12;100843.00;;;16.38;100.00
72157;BME280;60035;52.122;5.406;2023-10-13T04:38:59;100837.06;;;16.36;100.00
72157;BME280;60035;52.122;5.406;2023-10-13T04:41:33;100833.56;;;16.37;100.00
72157;BME280;60035;52.122;5.406;2023-10-13T04:44:14;100829.31;;;16.36;100.00
72157;BME280;60035;52.122;5.406;2023-10-13T04:46:57;100820.66;;;16.37;100.00
72157;BME280;60035;52.122;5.406;2023-10-13T04:49:29;100819.72;;;16.38;100.00
72157;BME280;60035;52.122;5.406;2023-10-13T04:52:17;100825.72;;;16.39;100.00
72157;BME280;60035;52.122;5.406;2023-10-13T04:55:05;100820.47;;;16.40;100.00
72157;BME280;60035;52.122;5.406;2023-10-13T04:58:04;100817.81;;;16.42;100.00
72157;BME280;60035;52.122;5.406;2023-10-13T05:00:41;100807.41;;;16.43;100.00
72157;BME280;60035;52.122;5.406;2023-10-13T05:03:43;100793.47;;;16.46;100.00
72157;BME280;60035;52.122;5.406;2023-10-13T05:06:28;100790.63;;;16.51;100.00
72157;BME280;60035;52.122;5.406;2023-10-13T05:09:11;100798.03;;;16.57;100.00
72157;BME280;60035;52.122;5.406;2023-10-13T05:11:57;100789.00;;;16.64;100.00
72157;BME280;60035;52.122;5.406;2023-10-13T05:14:42;100779.25;;;16.69;100.00
72157;BME280;60035;52.122;5.406;2023-10-13T05:17:27;100781.41;;;16.77;100.00
72157;BME280;60035;52.122;5.406;2023-10-13T05:20:13;100781.91;;;16.83;100.00
72157;BME280;60035;52.122;5.406;2023-10-13T05:22:58;100772.94;;;16.89;100.00
72157;BME280;60035;52.122;5.406;2023-10-13T05:25:43;100769.13;;;16.96;100.00
72157;BME280;60035;52.122;5.406;2023-10-13T05:28:28;100769.69;;;17.02;100.00
72157;BME280;60035;52.122;5.406;2023-10-13T05:31:13;100781.44;;;17.07;100.00
72157;BME280;60035;52.122;5.406;2023-10-13T05:33:58;100773.44;;;17.12;100.00
72157;BME280;60035;52.122;5.406;2023-10-13T05:36:43;100770.84;;;17.12;100.00
72157;BME280;60035;52.122;5.406;2023-10-13T05:39:28;100770.91;;;17.10;100.00
72157;BME280;60035;52.122;5.406;2023-10-13T05:42:13;100764.81;;;17.11;100.00
72157;BME280;60035;52.122;5.406;2023-10-13T05:44:58;100764.00;;;17.11;100.00
72157;BME280;60035;52.122;5.406;2023-10-13T05:47:43;100761.56;;;17.08;100.00
72157;BME280;60035;52.122;5.406;2023-10-13T05:50:11;100758.16;;;17.07;100.00
72157;BME280;60035;52.122;5.406;2023-10-13T05:52:48;100752.22;;;17.05;100.00
72157;BME280;60035;52.122;5.406;2023-10-13T05:58:10;100746.31;;;17.03;100.00
72157;BME280;60035;52.122;5.406;2023-10-13T06:00:55;100755.00;;;17.02;100.00
72157;BME280;60035;52.122;5.406;2023-10-13T06:03:41;100743.16;;;16.98;100.00
72157;BME280;60035;52.122;5.406;2023-10-13T06:06:26;100745.94;;;16.95;100.00
72157;BME280;60035;52.122;5.406;2023-10-13T06:09:11;100750.38;;;16.93;100.00
72157;BME280;60035;52.122;5.406;2023-10-13T06:11:56;100740.84;;;16.93;100.00
72157;BME280;60035;52.122;5.406;2023-10-13T06:14:45;100743.50;;;16.92;100.00
72157;BME280;60035;52.122;5.406;2023-10-13T06:17:30;100734.03;;;16.92;100.00
72157;BME280;60035;52.122;5.406;2023-10-13T06:20:17;100715.06;;;16.92;100.00
72157;BME280;60035;52.122;5.406;2023-10-13T06:23:07;100716.84;;;16.91;100.00
72157;BME280;60035;52.122;5.406;2023-10-13T06:25:53;100716.84;;;16.91;100.00
72157;BME280;60035;52.122;5.406;2023-10-13T06:28:39;100711.56;;;16.93;100.00
72157;BME280;60035;52.122;5.406;2023-10-13T06:31:10;100713.22;;;16.94;100.00
72157;BME280;60035;52.122;5.406;2023-10-13T06:33:48;100701.13;;;16.94;100.00
72157;BME280;60035;52.122;5.406;2023-10-13T06:36:15;100699.38;;;16.95;100.00
72157;BME280;60035;52.122;5.406;2023-10-13T06:38:44;100706.28;;;16.94;100.00
72157;BME280;60035;52.122;5.406;2023-10-13T06:41:10;100702.69;;;16.97;100.00
72157;BME280;60035;52.122;5.406;2023-10-13T06:43:46;100698.38;;;16.97;100.00
72157;BME280;60035;52.122;5.406;2023-10-13T06:46:26;100699.09;;;16.99;100.00
72157;BME280;60035;52.122;5.406;2023-10-13T06:48:55;100697.28;;;17.02;100.00
72157;BME280;60035;52.122;5.406;2023-10-13T06:51:22;100700.59;;;17.04;100.00
72157;BME280;60035;52.122;5.406;2023-10-13T06:53:52;100699.75;;;17.03;100.00
72157;BME280;60035;52.122;5.406;2023-10-13T06:56:23;100693.47;;;17.07;100.00
72157;BME280;60035;52.122;5.406;2023-10-13T06:58:56;100691.56;;;17.11;100.00
72157;BME280;60035;52.122;5.406;2023-10-13T07:01:26;100676.84;;;17.11;100.00
72157;BME280;60035;52.122;5.406;2023-10-13T07:03:54;100677.50;;;17.15;100.00
72157;BME280;60035;52.122;5.406;2023-10-13T07:06:21;100675.63;;;17.17;100.00
72157;BME280;60035;52.122;5.406;2023-10-13T07:08:48;100670.94;;;17.24;100.00
72157;BME280;60035;52.122;5.406;2023-10-13T07:11:25;100665.59;;;17.27;100.00
72157;BME280;60035;52.122;5.406;2023-10-13T07:14:05;100673.91;;;17.32;100.00
72157;BME280;60035;52.122;5.406;2023-10-13T07:16:43;100658.06;;;17.37;100.00
72157;BME280;60035;52.122;5.406;2023-10-13T07:19:13;100642.28;;;17.41;100.00
72157;BME280;60035;52.122;5.406;2023-10-13T07:21:45;100620.66;;;17.42;100.00
72157;BME280;60035;52.122;5.406;2023-10-13T07:24:13;100617.00;;;17.45;100.00
72157;BME280;60035;52.122;5.406;2023-10-13T07:26:40;100608.16;;;17.49;100.00
72157;BME280;60035;52.122;5.406;2023-10-13T07:29:10;100615.72;;;17.52;100.00
72157;BME280;60035;52.122;5.406;2023-10-13T07:31:37;100609.31;;;17.58;100.00
72157;BME280;60035;52.122;5.406;2023-10-13T07:34:08;100609.16;;;17.61;100.00
72157;BME280;60035;52.122;5.406;2023-10-13T07:37:04;100609.59;;;17.68;100.00
72157;BME280;60035;52.122;5.406;2023-10-13T07:39:34;100615.38;;;17.71;100.00
72157;BME280;60035;52.122;5.406;2023-10-13T07:42:02;100613.53;;;17.73;100.00
72157;BME280;60035;52.122;5.406;2023-10-13T07:44:42;100616.84;;;17.75;100.00
72157;BME280;60035;52.122;5.406;2023-10-13T07:47:13;100601.13;;;17.78;100.00
72157;BME280;60035;52.122;5.406;2023-10-13T07:49:41;100625.38;;;17.77;100.00
72157;BME280;60035;52.122;5.406;2023-10-13T07:52:11;100623.59;;;17.78;100.00
72157;BME280;60035;52.122;5.406;2023-10-13T07:54:54;100591.50;;;17.80;100.00
72157;BME280;60035;52.122;5.406;2023-10-13T07:57:40;100606.09;;;17.81;100.00
72157;BME280;60035;52.122;5.406;2023-10-13T08:00:21;100613.66;;;17.85;100.00
72157;BME280;60035;52.122;5.406;2023-10-13T08:03:07;100611.84;;;17.87;100.00
72157;BME280;60035;52.122;5.406;2023-10-13T08:05:44;100601.94;;;17.93;100.00
72157;BME280;60035;52.122;5.406;2023-10-13T08:08:26;100599.06;;;17.98;100.00
72157;BME280;60035;52.122;5.406;2023-10-13T08:10:53;100614.09;;;18.06;100.00
72157;BME280;60035;52.122;5.406;2023-10-13T08:13:22;100616.19;;;18.13;100.00
72157;BME280;60035;52.122;5.406;2023-10-13T08:15:49;100605.63;;;18.17;100.00
72157;BME280;60035;52.122;5.406;2023-10-13T08:18:19;100606.25;;;18.20;100.00
72157;BME280;60035;52.122;5.406;2023-10-13T08:21:03;100593.22;;;18.22;100.00
72157;BME280;60035;52.122;5.406;2023-10-13T08:23:30;100599.84;;;18.26;100.00
72157;BME280;60035;52.122;5.406;2023-10-13T08:26:16;100592.59;;;18.31;100.00
72157;BME280;60035;52.122;5.406;2023-10-13T08:29:05;100589.59;;;18.37;100.00
72157;BME280;60035;52.122;5.406;2023-10-13T08:31:51;100578.06;;;18.41;100.00
72157;BME280;60035;52.122;5.406;2023-10-13T08:34:31;100588.97;;;18.46;100.00
72157;BME280;60035;52.122;5.406;2023-10-13T08:37:10;100580.16;;;18.49;100.00
72157;BME280;60035;52.122;5.406;2023-10-13T08:39:50;100576.31;;;18.55;100.00
72157;BME280;60035;52.122;5.406;2023-10-13T08:42:53;100578.72;;;18.58;100.00
72157;BME280;60035;52.122;5.406;2023-10-13T08:45:31;100580.97;;;18.62;100.00
72157;BME280;60035;52.122;5.406;2023-10-13T08:48:03;100575.69;;;18.64;100.00
72157;BME280;60035;52.122;5.406;2023-10-13T08:50:50;100573.72;;;18.68;100.00
72157;BME280;60035;52.122;5.406;2023-10-13T08:53:25;100557.34;;;18.67;100.00
72157;BME280;60035;52.122;5.406;2023-10-13T08:56:06;100552.06;;;18.69;100.00
72157;BME280;60035;52.122;5.406;2023-10-13T08:58:38;100568.44;;;18.69;100.00
72157;BME280;60035;52.122;5.406;2023-10-13T09:01:26;100560.34;;;18.74;100.00
72157;BME280;60035;52.122;5.406;2023-10-13T09:04:13;100560.97;;;18.77;100.00
72157;BME280;60035;52.122;5.406;2023-10-13T09:06:55;100554.22;;;18.75;100.00
72157;BME280;60035;52.122;5.406;2023-10-13T09:14:42;100562.94;;;18.74;100.00
72157;BME280;60035;52.122;5.406;2023-10-13T09:17:24;100553.50;;;18.73;100.00
72157;BME280;60035;52.122;5.406;2023-10-13T09:22:55;100538.84;;;18.72;100.00
72157;BME280;60035;52.122;5.406;2023-10-13T09:25:29;100542.41;;;18.71;100.00
72157;BME280;60035;52.122;5.406;2023-10-13T09:28:13;100555.16;;;18.74;100.00
72157;BME280;60035;52.122;5.406;2023-10-13T09:30:49;100543.41;;;18.81;100.00
72157;BME280;60035;52.122;5.406;2023-10-13T09:33:20;100546.63;;;18.85;100.00
72157;BME280;60035;52.122;5.406;2023-10-13T09:35:55;100535.13;;;18.89;100.00
72157;BME280;60035;52.122;5.406;2023-10-13T09:38:29;100536.56;;;18.93;100.00
72157;BME280;60035;52.122;5.406;2023-10-13T09:40:56;100521.75;;;18.95;100.00
72157;BME280;60035;52.122;5.406;2023-10-13T09:43:24;100525.16;;;18.95;100.00
72157;BME280;60035;52.122;5.406;2023-10-13T09:45:58;100518.91;;;18.98;100.00
72157;BME280;60035;52.122;5.406;2023-10-13T09:48:45;100517.88;;;19.01;100.00
72157;BME280;60035;52.122;5.406;2023-10-13T09:51:14;100523.69;;;19.04;100.00
72157;BME280;60035;52.122;5.406;2023-10-13T09:53:56;100507.19;;;19.05;100.00
72157;BME280;60035;52.122;5.406;2023-10-13T09:56:57;100500.34;;;19.04;100.00
72157;BME280;60035;52.122;5.406;2023-10-13T10:02:15;100491.13;;;19.00;100.00
72157;BME280;60035;52.122;5.406;2023-10-13T10:04:52;100496.50;;;18.97;100.00
72157;BME280;60035;52.122;5.406;2023-10-13T10:07:28;100486.97;;;18.97;100.00
72157;BME280;60035;52.122;5.406;2023-10-13T10:09:56;100491.69;;;19.04;100.00
72157;BME280;60035;52.122;5.406;2023-10-13T10:13:00;100482.34;;;19.14;100.00
72157;BME280;60035;52.122;5.406;2023-10-13T10:15:35;100481.16;;;19.18;100.00
72157;BME280;60035;52.122;5.406;2023-10-13T10:18:03;100474.13;;;19.20;100.00
72157;BME280;60035;52.122;5.406;2023-10-13T10:20:35;100478.25;;;19.23;100.00
72157;BME280;60035;52.122;5.406;2023-10-13T10:23:09;100482.78;;;19.32;100.00
72157;BME280;60035;52.122;5.406;2023-10-13T10:25:48;100469.81;;;19.32;100.00
72157;BME280;60035;52.122;5.406;2023-10-13T10:28:18;100459.91;;;19.37;100.00
72157;BME280;60035;52.122;5.406;2023-10-13T10:30:46;100462.66;;;19.47;100.00
72157;BME280;60035;52.122;5.406;2023-10-13T10:33:14;100457.84;;;19.54;100.00
72157;BME280;60035;52.122;5.406;2023-10-13T10:35:46;100451.03;;;19.64;100.00
72157;BME280;60035;52.122;5.406;2023-10-13T10:38:17;100446.44;;;19.68;100.00
72157;BME280;60035;52.122;5.406;2023-10-13T10:41:06;100449.28;;;19.76;100.00
72157;BME280;60035;52.122;5.406;2023-10-13T10:48:41;100432.47;;;19.93;100.00
72157;BME280;60035;52.122;5.406;2023-10-13T10:51:13;100444.03;;;20.00;100.00
72157;BME280;60035;52.122;5.406;2023-10-13T10:53:53;100440.75;;;20.09;100.00
72157;BME280;60035;52.122;5.406;2023-10-13T10:56:24;100447.97;;;20.17;100.00
72157;BME280;60035;52.122;5.406;2023-10-13T10:58:56;100429.53;;;20.20;100.00
72157;BME280;60035;52.122;5.406;2023-10-13T11:01:24;100421.38;;;20.25;100.00
72157;BME280;60035;52.122;5.406;2023-10-13T11:03:55;100426.13;;;20.31;100.00
72157;BME280;60035;52.122;5.406;2023-10-13T11:06:25;100417.00;;;20.37;100.00
72157;BME280;60035;52.122;5.406;2023-10-13T11:09:05;100408.72;;;20.43;100.00
72157;BME280;60035;52.122;5.406;2023-10-13T11:11:54;100413.09;;;20.42;100.00
72157;BME280;60035;52.122;5.406;2023-10-13T11:14:28;100419.00;;;20.44;100.00
72157;BME280;60035;52.122;5.406;2023-10-13T11:16:56;100417.47;;;20.42;100.00
72157;BME280;60035;52.122;5.406;2023-10-13T11:19:45;100416.66;;;20.41;100.00
72157;BME280;60035;52.122;5.406;2023-10-13T11:24:56;100402.34;;;20.47;100.00
72157;BME280;60035;52.122;5.406;2023-10-13T11:27:32;100384.47;;;20.42;100.00
72157;BME280;60035;52.122;5.406;2023-10-13T11:30:11;100381.41;;;20.37;100.00
72157;BME280;60035;52.122;5.406;2023-10-13T11:32:57;100384.00;;;20.37;100.00
72157;BME280;60035;52.122;5.406;2023-10-13T11:35:24;100382.13;;;20.39;100.00
72157;BME280;60035;52.122;5.406;2023-10-13T11:37:51;100363.66;;;20.42;100.00
72157;BME280;60035;52.122;5.406;2023-10-13T11:40:30;100362.00;;;20.53;100.00
72157;BME280;60035;52.122;5.406;2023-10-13T11:43:17;100368.50;;;20.58;100.00
72157;BME280;60035;52.122;5.406;2023-10-13T11:45:48;100352.66;;;20.61;100.00
72157;BME280;60035;52.122;5.406;2023-10-13T11:48:44;100359.88;;;20.69;100.00
72157;BME280;60035;52.122;5.406;2023-10-13T11:51:13;100350.59;;;20.65;100.00
72157;BME280;60035;52.122;5.406;2023-10-13T11:53:44;100330.66;;;20.66;100.00
72157;BME280;60035;52.122;5.406;2023-10-13T11:56:21;100336.91;;;20.63;100.00
72157;BME280;60035;52.122;5.406;2023-10-13T11:58:48;100352.97;;;20.68;99.85
72157;BME280;60035;52.122;5.406;2023-10-13T12:01:15;100349.09;;;20.74;100.00
72157;BME280;60035;52.122;5.406;2023-10-13T12:03:47;100340.41;;;20.85;99.94
72157;BME280;60035;52.122;5.406;2023-10-13T12:06:34;100356.00;;;20.96;99.05
72157;BME280;60035;52.122;5.406;2023-10-13T12:09:08;100337.38;;;21.01;96.56
72157;BME280;60035;52.122;5.406;2023-10-13T12:11:47;100355.41;;;20.92;97.08
72157;BME280;60035;52.122;5.406;2023-10-13T12:14:18;100354.38;;;20.84;97.77
72157;BME280;60035;52.122;5.406;2023-10-13T12:17:16;100353.69;;;20.82;97.28
72157;BME280;60035;52.122;5.406;2023-10-13T12:19:52;100354.00;;;20.88;97.17
72157;BME280;60035;52.122;5.406;2023-10-13T12:22:18;100355.66;;;20.89;95.72
72157;BME280;60035;52.122;5.406;2023-10-13T12:24:56;100353.88;;;20.90;95.42
72157;BME280;60035;52.122;5.406;2023-10-13T12:27:23;100344.19;;;20.92;94.38
72157;BME280;60035;52.122;5.406;2023-10-13T12:29:50;100336.94;;;20.95;94.12
72157;BME280;60035;52.122;5.406;2023-10-13T12:32:22;100354.78;;;21.00;93.85
72157;BME280;60035;52.122;5.406;2023-10-13T12:34:51;100340.84;;;21.01;94.39
72157;BME280;60035;52.122;5.406;2023-10-13T12:37:31;100326.03;;;21.02;95.50
72157;BME280;60035;52.122;5.406;2023-10-13T12:40:17;100320.69;;;21.03;93.03
72157;BME280;60035;52.122;5.406;2023-10-13T12:43:04;100332.03;;;21.02;93.28
72157;BME280;60035;52.122;5.406;2023-10-13T12:45:50;100350.66;;;20.97;92.29
72157;BME280;60035;52.122;5.406;2023-10-13T12:48:36;100344.50;;;20.99;92.97
72157;BME280;60035;52.122;5.406;2023-10-13T12:51:22;100334.47;;;20.94;93.04
72157;BME280;60035;52.122;5.406;2023-10-13T12:53:55;100343.47;;;20.90;93.85
72157;BME280;60035;52.122;5.406;2023-10-13T12:56:31;100344.41;;;20.89;94.42
72157;BME280;60035;52.122;5.406;2023-10-13T12:58:57;100330.72;;;20.87;94.97
72157;BME280;60035;52.122;5.406;2023-10-13T13:01:25;100341.25;;;20.85;95.93
72157;BME280;60035;52.122;5.406;2023-10-13T13:03:59;100359.56;;;20.84;94.74
72157;BME280;60035;52.122;5.406;2023-10-13T13:06:29;100352.03;;;20.80;95.67
72157;BME280;60035;52.122;5.406;2023-10-13T13:08:58;100353.69;;;20.82;96.47
72157;BME280;60035;52.122;5.406;2023-10-13T13:11:25;100351.34;;;20.78;96.48
72157;BME280;60035;52.122;5.406;2023-10-13T13:13:53;100350.63;;;20.76;98.34
72157;BME280;60035;52.122;5.406;2023-10-13T13:16:19;100349.34;;;20.71;100.00
72157;BME280;60035;52.122;5.406;2023-10-13T13:18:50;100335.38;;;20.60;100.00
72157;BME280;60035;52.122;5.406;2023-10-13T13:21:17;100342.84;;;20.54;100.00
72157;BME280;60035;52.122;5.406;2023-10-13T13:23:50;100346.06;;;20.46;100.00
72157;BME280;60035;52.122;5.406;2023-10-13T13:26:17;100340.66;;;20.38;100.00
72157;BME280;60035;52.122;5.406;2023-10-13T13:28:44;100347.97;;;20.33;100.00
72157;BME280;60035;52.122;5.406;2023-10-13T13:31:11;100345.97;;;20.25;100.00
72157;BME280;60035;52.122;5.406;2023-10-13T13:33:41;100327.56;;;20.17;100.00
72157;BME280;60035;52.122;5.406;2023-10-13T13:36:11;100324.03;;;20.06;100.00
72157;BME280;60035;52.122;5.406;2023-10-13T13:38:43;100320.94;;;20.01;100.00
72157;BME280;60035;52.122;5.406;2023-10-13T13:41:16;100325.69;;;19.96;100.00
72157;BME280;60035;52.122;5.406;2023-10-13T13:43:47;100324.72;;;19.86;100.00
72157;BME280;60035;52.122;5.406;2023-10-13T13:46:23;100319.28;;;19.77;100.00
72157;BME280;60035;52.122;5.406;2023-10-13T13:49:00;100317.16;;;19.71;100.00
72157;BME280;60035;52.122;5.406;2023-10-13T13:51:33;100315.28;;;19.62;100.00